If you wish to contribute or participate in the discussions about articles you are invited to join SKYbrary as a registered user

 Actions

Turin/Caselle Airport

From SKYbrary Wiki

LIMF
Airport
ICAO: LIMF – IATA: TRN
Summary
Name Turin/Caselle Airport
Region Europe
Territory Italy IT.gif
Location Caselle Torinese, Piedmont
Serving Turin
Elevation 301.447 m <br />989 ft <br />989 ft301.447 m <br />
Coordinates 45° 11' 50.89" N, 7° 38' 57.77" E
Runways
Designator Length Width Surface ROPS
18/36 3300 m10,826.772 ft <br /> 60 m196.85 ft <br /> ASP yes/yes


METAR
Observation LIMF 170520Z 29002KT CAVOK 07/05 Q1020
Station Torino / Caselle
Date/Time 17 October 2021 05:20:00
Wind direction 290°
Wind speed 02 kts
Lowest cloud amount clouds and visibility OK
Temperature 7°C
Dew point 5°C
Humidity 87%
QNH 1020 hPa
Weather condition n/a

WX
Tag(s) Fohn Effect
Low Level Turbulence

Turin Airport, also known as Turin-Caselle Airport and Sandro Pertini Airport, is an airport located at Caselle Torinese, 10nm north-northwest of the city of Turin, northern Italy.

Climatology

Humid “subtropical” climate (Köppen climate classification Cfa)

Maps

Terrain

Loading map...

Airport Layout

Loading map...


Accidents & Serious Incidents at or in vicinity of LIMF

None on SKYbrary